Time;durP1;ratioP1;P1;durP2;ratioP2;P2;SDS_P1;SDS_P2;PMS_P1;PMS_P2;Temp;Humidity;BMP_temperature;BMP_pressure;BME280_temperature;BME280_humidity;BME280_pressure;Samples;Min_cycle;Max_cycle;Signal;HPM_P1;HPM_P2
2021/07/30 00:01:51;;;;;;;9.83;5.83;;;;;;;15.17;68.95;99755.82;2072056;83;21132;-73
2021/07/30 00:04:53;;;;;;;6.03;5.42;;;;;;;15.14;69.01;99750.08;2084092;83;21135;-73
2021/07/30 00:07:54;;;;;;;8.68;6.40;;;;;;;15.11;69.05;99758.50;2081907;82;21441;-73
2021/07/30 00:10:57;;;;;;;11.12;6.60;;;;;;;15.12;69.21;99759.65;2105882;82;21102;-73
2021/07/30 00:13:58;;;;;;;8.98;6.42;;;;;;;15.13;69.54;99750.59;2090336;83;21045;-72
2021/07/30 00:17:00;;;;;;;9.93;6.67;;;;;;;15.18;69.63;99746.80;2072283;83;21641;-72
2021/07/30 00:20:05;;;;;;;12.28;7.67;;;;;;;15.18;69.61;99757.48;2079813;82;21319;-73
2021/07/30 00:23:07;;;;;;;9.95;6.53;;;;;;;15.17;69.71;99751.81;2096796;82;21075;-73
2021/07/30 00:26:09;;;;;;;9.60;6.42;;;;;;;15.16;69.72;99760.87;2101285;82;20995;-73
2021/07/30 00:29:10;;;;;;;8.38;6.58;;;;;;;15.11;69.84;99761.17;2094135;83;21025;-73
2021/07/30 00:32:12;;;;;;;14.20;6.37;;;;;;;15.10;69.90;99764.37;2088642;83;21033;-73
2021/07/30 00:35:14;;;;;;;8.43;6.12;;;;;;;15.09;69.87;99769.41;2097733;82;21065;-73
2021/07/30 00:38:15;;;;;;;11.65;6.58;;;;;;;15.05;69.99;99770.02;2088782;83;21139;-73
2021/07/30 00:41:17;;;;;;;8.83;6.33;;;;;;;14.99;70.19;99768.98;2082198;81;21071;-73
2021/07/30 00:44:18;;;;;;;8.80;6.75;;;;;;;14.98;70.21;99770.02;2093017;83;21622;-73
2021/07/30 00:47:20;;;;;;;8.80;6.37;;;;;;;14.89;70.24;99768.03;2099844;82;21081;-73
2021/07/30 00:50:22;;;;;;;11.22;5.83;;;;;;;14.89;70.24;99765.88;2098862;82;21207;-73
2021/07/30 00:53:24;;;;;;;12.45;6.15;;;;;;;14.88;70.08;99768.25;2075653;83;21099;-73
2021/07/30 00:56:25;;;;;;;11.50;5.80;;;;;;;14.85;70.10;99772.66;2097466;82;21181;-73
2021/07/30 00:59:28;;;;;;;7.67;6.30;;;;;;;14.79;70.02;99773.78;2092499;83;21089;-72
2021/07/30 01:02:31;;;;;;;7.25;4.87;;;;;;;14.73;70.03;99771.92;2085866;82;22293;-72
2021/07/30 01:05:33;;;;;;;6.85;4.78;;;;;;;14.69;69.93;99777.86;2093532;82;21100;-73
2021/07/30 01:08:37;;;;;;;6.70;4.83;;;;;;;14.62;69.95;99780.52;2093810;82;21093;-73
2021/07/30 01:11:39;;;;;;;11.53;5.00;;;;;;;14.57;70.11;99782.45;2060971;83;21001;-73
2021/07/30 01:14:40;;;;;;;6.28;5.00;;;;;;;14.54;70.17;99785.52;2089153;82;21532;-73
2021/07/30 01:17:42;;;;;;;8.28;5.55;;;;;;;14.50;70.16;99776.73;2086213;83;21136;-73
2021/07/30 01:20:44;;;;;;;7.60;6.05;;;;;;;14.51;70.66;99769.06;2092343;82;22017;-73
2021/07/30 01:23:48;;;;;;;7.55;5.75;;;;;;;14.49;70.78;99777.77;2100522;82;21120;-73
2021/07/30 01:26:50;;;;;;;7.47;4.83;;;;;;;14.46;70.57;99775.50;2094062;82;21132;-73
2021/07/30 01:29:52;;;;;;;8.23;5.05;;;;;;;14.43;70.61;99770.05;2075558;83;21078;-73
2021/07/30 01:32:54;;;;;;;10.32;5.42;;;;;;;14.42;70.76;99776.42;2079177;82;21584;-73
2021/07/30 01:35:56;;;;;;;8.83;4.65;;;;;;;14.42;70.78;99772.42;2099185;82;21036;-73
2021/07/30 01:38:57;;;;;;;9.70;5.37;;;;;;;14.40;70.72;99768.30;2081925;83;21088;-73
2021/07/30 01:41:59;;;;;;;11.60;5.47;;;;;;;14.38;70.87;99777.01;2096030;82;21068;-73
2021/07/30 01:45:00;;;;;;;10.40;5.72;;;;;;;14.38;70.85;99773.01;2096073;82;21075;-73
2021/07/30 01:48:02;;;;;;;6.85;5.00;;;;;;;14.37;70.97;99780.72;2097255;82;21112;-73
2021/07/30 01:51:04;;;;;;;6.17;5.25;;;;;;;14.30;71.14;99772.17;2102227;83;21026;-73
2021/07/30 01:54:09;;;;;;;10.38;5.58;;;;;;;14.27;71.06;99780.55;2100061;82;21055;-72
2021/07/30 01:57:11;;;;;;;10.08;5.78;;;;;;;14.23;71.00;99775.31;2090134;83;21148;-73
2021/07/30 02:00:20;;;;;;;11.83;5.97;;;;;;;14.21;71.12;99776.02;2095657;83;21136;-73
2021/07/30 02:03:22;;;;;;;6.55;4.92;;;;;;;14.20;71.46;99774.38;2080540;83;21584;-72
2021/07/30 02:06:24;;;;;;;6.53;5.03;;;;;;;14.18;71.43;99777.75;2096545;83;21184;-73
2021/07/30 02:09:25;;;;;;;8.60;5.03;;;;;;;14.16;71.43;99776.30;2105702;82;21055;-72
2021/07/30 02:12:27;;;;;;;8.90;5.15;;;;;;;14.12;71.51;99783.37;2096952;82;21162;-73
2021/07/30 02:15:28;;;;;;;9.00;5.03;;;;;;;14.10;71.32;99780.58;2102237;82;21038;-73
2021/07/30 02:18:30;;;;;;;7.65;6.28;;;;;;;14.09;71.27;99772.28;2071728;83;21113;-73
2021/07/30 02:21:32;;;;;;;10.03;5.85;;;;;;;14.06;71.42;99779.34;2085186;83;21624;-72
2021/07/30 02:24:34;;;;;;;5.58;4.90;;;;;;;14.02;71.49;99774.92;2094235;83;21133;-73
2021/07/30 02:27:36;;;;;;;7.60;5.58;;;;;;;13.99;71.60;99776.62;2087439;82;21125;-73
2021/07/30 02:30:37;;;;;;;9.20;5.37;;;;;;;13.98;71.59;99774.98;2089980;83;21086;-72
2021/07/30 02:33:39;;;;;;;10.98;5.65;;;;;;;13.98;71.71;99775.50;2077338;83;21253;-73
2021/07/30 02:36:40;;;;;;;10.03;4.97;;;;;;;13.84;71.71;99786.60;2095930;82;21054;-73
2021/07/30 02:39:42;;;;;;;8.75;4.55;;;;;;;13.73;71.85;99785.81;2092633;82;21104;-73
2021/07/30 02:42:44;;;;;;;8.80;4.87;;;;;;;13.68;71.74;99789.05;2087796;83;21026;-72
2021/07/30 02:45:46;;;;;;;12.55;4.78;;;;;;;13.63;71.64;99785.66;2091823;82;21047;-73
2021/07/30 02:48:48;;;;;;;8.18;4.42;;;;;;;13.58;71.62;99786.74;2072688;83;21933;-72
2021/07/30 02:51:49;;;;;;;8.25;4.67;;;;;;;13.53;71.55;99787.83;2093661;82;21073;-73
2021/07/30 02:54:52;;;;;;;7.97;5.67;;;;;;;13.47;71.63;99786.46;2086701;83;21026;-72
2021/07/30 02:57:53;;;;;;;7.60;5.45;;;;;;;13.44;71.77;99788.48;2076367;83;21346;-73
2021/07/30 03:00:55;;;;;;;8.68;4.97;;;;;;;13.37;71.98;99790.26;2085253;82;21091;-72
2021/07/30 03:03:56;;;;;;;5.42;4.05;;;;;;;13.38;71.84;99795.92;2087143;83;21057;-73
2021/07/30 03:06:58;;;;;;;8.08;4.95;;;;;;;13.33;71.88;99790.34;2083334;82;21192;-73
2021/07/30 03:09:59;;;;;;;10.13;4.90;;;;;;;13.34;72.07;99793.31;2091116;83;21139;-73
2021/07/30 03:13:01;;;;;;;10.23;5.33;;;;;;;13.36;72.11;99787.80;2092092;82;21064;-72
2021/07/30 03:16:04;;;;;;;8.95;5.22;;;;;;;13.37;72.07;99784.92;2090269;83;21121;-72
2021/07/30 03:19:06;;;;;;;7.83;5.47;;;;;;;13.36;72.18;99792.63;2086823;82;21185;-72
2021/07/30 03:22:07;;;;;;;8.50;4.78;;;;;;;13.37;72.02;99792.92;2083360;82;21103;-72
2021/07/30 03:25:10;;;;;;;7.30;4.62;;;;;;;13.38;71.99;99793.77;2091274;83;21096;-73
2021/07/30 03:28:11;;;;;;;6.15;4.90;;;;;;;13.35;71.97;99794.98;2077129;82;21617;-72
2021/07/30 03:31:13;;;;;;;7.60;5.58;;;;;;;13.38;72.06;99791.92;2084664;82;21055;-73
2021/07/30 03:34:15;;;;;;;6.95;5.53;;;;;;;13.41;72.09;99798.20;2092108;82;21093;-71
2021/07/30 03:37:17;;;;;;;6.25;5.50;;;;;;;13.48;72.21;99790.77;2089380;82;21562;-72
2021/07/30 03:40:18;;;;;;;8.05;5.42;;;;;;;13.56;72.40;99801.28;2097399;82;21111;-72
2021/07/30 03:43:20;;;;;;;8.55;5.65;;;;;;;13.73;72.66;99795.96;2098866;82;21857;-71
2021/07/30 03:46:22;;;;;;;8.75;6.25;;;;;;;13.98;72.61;99793.66;2092198;82;21049;-70
2021/07/30 03:49:23;;;;;;;8.00;5.67;;;;;;;14.22;72.50;99793.69;2089811;82;21122;-72
2021/07/30 03:52:25;;;;;;;6.85;4.92;;;;;;;14.39;72.28;99795.52;2100497;82;21053;-75
2021/07/30 03:55:27;;;;;;;7.80;5.00;;;;;;;14.48;72.07;99794.30;2090287;82;21085;-72
2021/07/30 03:58:28;;;;;;;8.45;5.95;;;;;;;14.48;71.85;99797.48;2092717;83;21112;-71
2021/07/30 04:01:30;;;;;;;7.03;6.08;;;;;;;14.53;71.96;99792.41;2091893;83;21029;-71
2021/07/30 04:04:32;;;;;;;9.55;5.12;;;;;;;14.58;72.10;99793.94;2089789;83;21032;-71
2021/07/30 04:07:33;;;;;;;8.10;6.15;;;;;;;14.67;72.05;99792.77;2092650;82;21626;-71
2021/07/30 04:10:35;;;;;;;9.50;5.67;;;;;;;14.84;72.24;99801.23;2075530;83;21721;-72
2021/07/30 04:13:37;;;;;;;10.98;6.55;;;;;;;15.09;72.24;99805.97;2069385;82;21228;-72
2021/07/30 04:16:38;;;;;;;9.28;6.55;;;;;;;15.34;72.16;99803.53;2089644;82;21588;-72
2021/07/30 04:19:43;;;;;;;8.93;5.75;;;;;;;15.45;71.98;99797.05;2091640;82;21084;-72
2021/07/30 04:22:43;;;;;;;9.43;6.42;;;;;;;15.55;71.92;99801.17;2093995;83;22316;-72
2021/07/30 04:25:44;;;;;;;12.15;6.37;;;;;;;15.88;72.23;99806.48;2086979;83;21125;-72
2021/07/30 04:28:46;;;;;;;8.50;6.45;;;;;;;16.36;72.04;99804.84;2074465;82;21116;-72
2021/07/30 04:31:48;;;;;;;10.63;6.00;;;;;;;16.88;71.67;99807.48;2100530;82;21136;-72
2021/07/30 04:34:49;;;;;;;11.30;6.62;;;;;;;17.29;71.00;99800.30;2085453;83;21110;-72
2021/07/30 04:37:51;;;;;;;10.13;6.47;;;;;;;17.73;70.71;99795.77;2074154;82;21202;-72
2021/07/30 04:40:52;;;;;;;9.25;6.90;;;;;;;17.94;70.03;99802.63;2074224;83;21060;-72
2021/07/30 04:43:54;;;;;;;13.08;6.60;;;;;;;18.16;69.56;99804.36;2089242;82;21097;-73
2021/07/30 04:46:55;;;;;;;9.55;6.20;;;;;;;18.62;69.36;99806.98;2079143;82;21117;-72
2021/07/30 04:49:57;;;;;;;14.43;6.50;;;;;;;19.07;68.59;99809.28;2084775;82;21549;-72
2021/07/30 04:52:58;;;;;;;13.28;6.40;;;;;;;19.34;67.90;99806.17;2078618;82;21058;-73
2021/07/30 04:56:00;;;;;;;9.40;6.60;;;;;;;19.47;67.31;99801.92;2094797;82;21104;-72
2021/07/30 04:59:01;;;;;;;11.03;6.85;;;;;;;19.44;66.80;99802.39;2087698;82;21118;-72
2021/07/30 05:02:03;;;;;;;11.68;6.65;;;;;;;19.57;66.41;99809.41;2097374;82;21381;-72
2021/07/30 05:05:06;;;;;;;10.18;6.85;;;;;;;19.58;66.13;99806.49;2085592;83;21594;-73
2021/07/30 05:08:07;;;;;;;8.40;5.58;;;;;;;19.58;65.91;99806.49;2082170;82;21072;-72
2021/07/30 05:11:11;;;;;;;9.40;5.97;;;;;;;19.57;65.66;99804.02;2085209;82;21080;-72
2021/07/30 05:14:12;;;;;;;11.95;6.00;;;;;;;19.52;65.37;99807.44;2082324;83;21104;-72
2021/07/30 05:17:14;;;;;;;9.15;6.42;;;;;;;19.50;65.17;99806.84;2070896;83;21666;-72
2021/07/30 05:20:15;;;;;;;11.68;5.90;;;;;;;19.65;65.48;99807.24;2081787;82;21799;-72
2021/07/30 05:23:17;;;;;;;12.68;6.05;;;;;;;20.00;65.35;99807.74;2085679;83;21751;-73
2021/07/30 05:26:18;;;;;;;9.58;5.95;;;;;;;20.19;64.89;99804.38;2097797;82;21579;-73
2021/07/30 05:29:20;;;;;;;9.43;5.78;;;;;;;20.27;64.86;99805.87;2077149;83;21180;-73
2021/07/30 05:32:21;;;;;;;9.80;5.92;;;;;;;20.38;64.20;99806.37;2080498;83;21085;-72
2021/07/30 05:35:23;;;;;;;13.45;5.15;;;;;;;20.53;64.18;99801.33;2083621;83;21137;-72
2021/07/30 05:38:25;;;;;;;7.37;5.25;;;;;;;20.57;63.06;99796.27;2009490;86;21111;-72
2021/07/30 05:41:26;;;;;;;8.25;5.47;;;;;;;20.40;62.61;99799.41;2017638;86;21619;-72
2021/07/30 05:44:28;;;;;;;14.87;5.08;;;;;;;20.30;63.12;99795.96;2080776;83;21077;-73
2021/07/30 05:47:30;;;;;;;10.75;5.58;;;;;;;20.30;62.70;99801.34;2075386;83;21090;-73
2021/07/30 05:50:31;;;;;;;7.08;5.62;;;;;;;20.17;63.04;99793.02;2086763;83;21101;-73
2021/07/30 05:53:33;;;;;;;10.75;5.10;;;;;;;20.18;62.94;99795.18;2063819;83;21105;-73
2021/07/30 05:56:34;;;;;;;11.97;6.28;;;;;;;20.15;63.03;99791.90;2077600;83;21497;-71
2021/07/30 05:59:36;;;;;;;9.25;4.90;;;;;;;20.27;63.28;99799.98;2062917;84;21158;-73
2021/07/30 06:02:37;;;;;;;8.53;5.12;;;;;;;20.51;63.21;99794.51;2068758;83;21069;-72
2021/07/30 06:05:39;;;;;;;8.55;5.60;;;;;;;21.09;63.00;99796.66;2068246;83;21144;-71
2021/07/30 06:08:41;;;;;;;12.93;5.58;;;;;;;21.89;62.07;99786.88;2074913;83;21019;-72
2021/07/30 06:11:42;;;;;;;10.32;5.58;;;;;;;22.44;61.19;99791.09;2085925;82;21057;-72
2021/07/30 06:14:44;;;;;;;6.30;4.87;;;;;;;23.03;60.46;99791.19;2091683;83;21498;-72
2021/07/30 06:17:45;;;;;;;9.38;5.65;;;;;;;23.32;58.81;99789.56;2076699;83;21045;-72
2021/07/30 06:20:47;;;;;;;7.62;5.10;;;;;;;23.75;58.40;99791.78;2084143;83;21088;-68
2021/07/30 06:23:49;;;;;;;10.80;4.47;;;;;;;24.22;57.91;99797.19;2085938;83;21062;-75
2021/07/30 06:26:50;;;;;;;8.70;4.12;;;;;;;24.64;56.65;99795.44;2015709;86;21617;-73
2021/07/30 06:29:52;;;;;;;11.00;4.60;;;;;;;25.05;55.44;99793.63;2014947;86;21116;-71
2021/07/30 06:32:54;;;;;;;13.28;4.42;;;;;;;25.52;55.04;99787.68;2015739;84;21073;-71
2021/07/30 06:35:57;;;;;;;10.72;4.65;;;;;;;25.83;53.72;99793.91;2020650;86;22304;-71
2021/07/30 06:38:58;;;;;;;7.28;3.75;;;;;;;26.29;52.95;99782.31;2023455;85;21035;-71
2021/07/30 06:42:00;;;;;;;7.08;3.70;;;;;;;26.48;50.91;99778.97;2017781;85;21065;-72
2021/07/30 06:45:03;;;;;;;6.22;3.17;;;;;;;26.67;50.65;99781.34;2013610;86;21113;-71
2021/07/30 06:48:05;;;;;;;7.80;3.72;;;;;;;26.90;49.60;99771.66;2023302;86;21068;-72
2021/07/30 06:51:12;;;;;;;6.12;3.17;;;;;;;27.12;49.11;99773.14;2009673;86;21148;-72
2021/07/30 06:54:15;;;;;;;9.05;3.37;;;;;;;27.20;48.07;99773.89;2070999;84;21628;-71
2021/07/30 06:57:16;;;;;;;6.58;3.30;;;;;;;27.12;47.74;99773.95;2067145;84;21117;-71
2021/07/30 07:00:18;;;;;;;4.67;3.27;;;;;;;27.19;47.73;99771.72;2077113;83;21025;-71
2021/07/30 07:03:20;;;;;;;9.95;3.22;;;;;;;27.42;47.37;99767.98;2076063;83;21094;-72
2021/07/30 07:06:21;;;;;;;8.73;2.92;;;;;;;27.63;46.54;99763.97;2089459;82;21027;-72
2021/07/30 07:09:24;;;;;;;7.33;3.30;;;;;;;27.72;45.82;99768.23;2086153;83;21022;-71
2021/07/30 07:12:25;;;;;;;7.33;3.08;;;;;;;27.92;45.34;99767.22;2078415;83;21022;-72
2021/07/30 07:15:27;;;;;;;6.10;3.05;;;;;;;28.17;44.93;99777.02;2073147;83;21633;-72
2021/07/30 07:18:33;;;;;;;9.50;3.77;;;;;;;28.41;43.99;99771.53;2082385;83;21073;-72
2021/07/30 07:21:35;;;;;;;8.25;3.60;;;;;;;28.66;43.42;99769.56;2075370;83;22020;-72
2021/07/30 07:24:41;;;;;;;6.78;3.00;;;;;;;28.85;43.09;99769.00;2084942;83;21062;-72
2021/07/30 07:27:42;;;;;;;7.58;3.90;;;;;;;29.15;42.81;99771.84;2076451;83;21852;-74
2021/07/30 07:30:44;;;;;;;7.28;2.85;;;;;;;29.27;41.89;99768.62;2074698;83;20998;-74
2021/07/30 07:33:45;;;;;;;6.00;3.05;;;;;;;29.26;41.45;99762.92;2081022;83;21925;-74
2021/07/30 07:36:47;;;;;;;4.85;2.77;;;;;;;29.45;40.53;99760.94;2081659;83;21434;-74
2021/07/30 07:39:49;;;;;;;9.75;3.00;;;;;;;29.69;40.43;99756.69;2073995;83;21530;-74
2021/07/30 07:42:50;;;;;;;4.65;2.40;;;;;;;30.02;40.10;99755.80;2079549;83;21609;-73
2021/07/30 07:45:52;;;;;;;4.28;2.62;;;;;;;30.23;39.72;99752.09;2089473;83;21042;-73
2021/07/30 07:48:53;;;;;;;6.78;2.67;;;;;;;30.18;38.21;99755.70;2080842;83;21047;-74
2021/07/30 07:51:55;;;;;;;10.58;2.60;;;;;;;30.16;37.60;99751.11;2083871;83;21031;-72
2021/07/30 07:54:56;;;;;;;5.15;2.77;;;;;;;30.19;37.45;99757.34;2079464;83;21042;-71
2021/07/30 07:57:58;;;;;;;9.00;2.50;;;;;;;30.14;37.09;99751.97;2075983;83;21184;-72
2021/07/30 08:01:00;;;;;;;3.45;2.17;;;;;;;30.08;36.95;99749.09;2074518;83;21037;-74
2021/07/30 08:04:02;;;;;;;7.28;2.30;;;;;;;30.48;35.67;99746.05;2081519;83;21582;-70
2021/07/30 08:07:04;;;;;;;6.37;2.80;;;;;;;30.45;35.67;99747.23;2079004;83;21120;-71
2021/07/30 08:10:08;;;;;;;10.65;2.33;;;;;;;30.33;35.40;99740.37;2072876;83;21597;-72
2021/07/30 08:13:10;;;;;;;5.58;2.45;;;;;;;30.33;35.40;99740.37;2087656;83;21624;-72
2021/07/30 08:16:12;;;;;;;5.03;2.30;;;;;;;30.34;35.36;99735.13;2076959;83;21498;-72
2021/07/30 08:19:14;;;;;;;5.40;2.27;;;;;;;30.34;35.36;99735.13;2065396;83;21069;-72
2021/07/30 08:22:15;;;;;;;4.47;2.47;;;;;;;30.30;34.60;99734.70;2064402;83;21108;-71
2021/07/30 08:25:17;;;;;;;6.10;2.30;;;;;;;30.30;34.01;99733.34;2086950;83;21103;-73
2021/07/30 08:28:19;;;;;;;6.62;2.50;;;;;;;30.33;34.57;99739.00;2085755;83;21022;-72
2021/07/30 08:31:27;;;;;;;7.15;2.60;;;;;;;30.48;33.80;99739.20;2076000;82;21032;-73
2021/07/30 08:34:29;;;;;;;6.47;2.13;;;;;;;30.32;33.34;99730.52;2061221;83;21557;-73
2021/07/30 08:37:30;;;;;;;3.52;2.37;;;;;;;30.28;33.46;99741.03;2078779;83;21164;-72
2021/07/30 08:40:33;;;;;;;3.98;2.30;;;;;;;30.33;33.30;99734.89;2056185;83;21564;-72
2021/07/30 08:43:35;;;;;;;6.72;2.40;;;;;;;30.32;33.25;99737.36;2068825;83;21006;-74
2021/07/30 08:46:40;;;;;;;5.62;2.37;;;;;;;30.42;33.20;99734.17;2074237;83;21042;-72
2021/07/30 08:49:41;;;;;;;6.67;2.35;;;;;;;30.60;32.51;99724.41;2065360;83;21054;-75
2021/07/30 08:52:44;;;;;;;4.75;2.60;;;;;;;30.62;33.35;99721.94;2074534;83;21129;-75
2021/07/30 08:55:47;;;;;;;3.52;2.10;;;;;;;30.63;32.44;99724.34;2060729;84;21090;-74
2021/07/30 08:58:48;;;;;;;3.17;2.20;;;;;;;30.61;32.96;99729.34;2038874;85;21129;-75
2021/07/30 09:01:54;;;;;;;6.20;2.47;;;;;;;30.74;32.73;99730.40;2053466;84;21108;-76
2021/07/30 09:04:56;;;;;;;8.90;2.35;;;;;;;30.87;32.31;99723.28;2052280;84;21117;-75
2021/07/30 09:08:00;;;;;;;5.70;2.10;;;;;;;30.93;32.25;99720.66;2049792;84;21089;-75
2021/07/30 09:11:02;;;;;;;6.05;2.42;;;;;;;30.94;31.80;99709.38;2047075;85;21793;-75
2021/07/30 09:14:11;;;;;;;5.47;2.35;;;;;;;31.05;32.12;99711.30;2010881;85;21635;-76
2021/07/30 09:17:13;;;;;;;5.33;2.30;;;;;;;30.96;31.51;99704.97;2084693;83;21152;-74
2021/07/30 09:20:20;;;;;;;5.62;2.37;;;;;;;30.87;31.69;99702.18;2081165;83;21025;-73
2021/07/30 09:23:24;;;;;;;6.45;2.27;;;;;;;30.96;31.75;99698.13;2089601;83;21497;-75
2021/07/30 09:26:46;;;;;;;8.40;2.92;;;;;;;30.86;31.68;99695.63;2090805;82;21105;-75
2021/07/30 09:29:48;;;;;;;3.87;2.15;;;;;;;30.99;31.83;99692.02;2072606;83;21407;-75
2021/07/30 09:32:54;;;;;;;5.83;2.87;;;;;;;30.99;31.33;99687.91;2100174;82;21547;-75
2021/07/30 09:35:59;;;;;;;9.88;2.65;;;;;;;30.91;31.81;99683.19;2089825;83;21139;-75
2021/07/30 09:39:00;;;;;;;8.48;2.65;;;;;;;30.86;31.68;99680.03;2088552;83;21594;-75
2021/07/30 09:42:11;;;;;;;6.87;2.30;;;;;;;30.90;31.50;99674.73;2090894;82;21117;-75
2021/07/30 09:45:13;;;;;;;9.10;2.52;;;;;;;31.04;31.25;99665.87;2092908;83;21470;-74
2021/07/30 09:48:15;;;;;;;3.50;2.35;;;;;;;31.16;31.21;99668.02;2089170;83;21530;-74
2021/07/30 09:51:17;;;;;;;8.30;2.60;;;;;;;31.04;31.10;99657.65;2090107;82;21531;-75
2021/07/30 09:54:19;;;;;;;4.78;2.47;;;;;;;31.04;31.39;99658.45;2095359;82;21556;-75
2021/07/30 09:57:30;;;;;;;4.03;2.60;;;;;;;31.01;30.99;99651.43;2078115;83;21100;-74
2021/07/30 10:00:33;;;;;;;9.13;2.70;;;;;;;31.07;30.71;99651.54;2086260;82;21112;-80
2021/07/30 10:03:36;;;;;;;10.43;2.85;;;;;;;31.08;29.87;99644.92;2084583;83;21122;-76
2021/07/30 10:06:38;;;;;;;4.80;2.45;;;;;;;30.93;30.51;99645.34;2060988;83;21104;-76
2021/07/30 10:09:43;;;;;;;4.80;2.52;;;;;;;30.93;30.44;99638.50;2083670;83;21063;-75
2021/07/30 10:12:49;;;;;;;4.08;2.52;;;;;;;30.96;30.64;99631.02;2081334;82;21057;-75
2021/07/30 10:15:51;;;;;;;11.90;2.60;;;;;;;30.97;30.76;99625.23;2088550;82;21077;-75
2021/07/30 10:18:53;;;;;;;8.63;2.85;;;;;;;30.82;31.02;99630.53;2096202;82;21072;-75
2021/07/30 10:21:59;;;;;;;6.40;2.80;;;;;;;30.85;30.29;99614.61;2092635;83;21073;-74
2021/07/30 10:25:02;;;;;;;5.35;2.47;;;;;;;30.77;30.12;99618.88;2093151;83;21072;-75
2021/07/30 10:28:26;;;;;;;5.90;2.52;;;;;;;30.62;30.28;99615.97;2101453;81;21036;-74
2021/07/30 10:31:50;;;;;;;6.75;2.90;;;;;;;30.76;30.55;99607.12;2086677;82;21081;-73
2021/07/30 10:34:52;;;;;;;5.17;2.65;;;;;;;30.90;30.65;99609.00;2068468;83;21064;-73
2021/07/30 10:38:15;;;;;;;9.88;2.98;;;;;;;30.92;30.57;99602.66;2091382;82;21608;-73
2021/07/30 10:41:19;;;;;;;30.37;4.20;;;;;;;30.84;30.27;99601.48;2088468;82;24058;-73
2021/07/30 10:44:20;;;;;;;3.27;2.22;;;;;;;30.77;30.57;99600.51;2101894;82;21666;-73
2021/07/30 10:47:23;;;;;;;11.95;2.75;;;;;;;30.76;29.89;99598.91;2096367;82;21064;-73
2021/07/30 10:50:56;;;;;;;3.25;2.77;;;;;;;30.82;31.04;99598.23;2097451;82;21089;-73
2021/07/30 10:54:01;;;;;;;3.35;2.52;;;;;;;30.96;30.81;99591.30;2088141;83;21634;-73
2021/07/30 10:57:03;;;;;;;5.40;2.70;;;;;;;30.86;30.32;99588.29;2075907;82;21135;-73
2021/07/30 11:00:05;;;;;;;7.45;2.60;;;;;;;30.91;30.36;99585.39;2065461;83;21074;-75
2021/07/30 11:03:07;;;;;;;5.40;2.47;;;;;;;30.85;30.13;99577.06;2091666;82;22135;-74
2021/07/30 11:06:11;;;;;;;5.12;2.77;;;;;;;30.72;30.65;99583.41;2083492;83;22369;-72
2021/07/30 11:09:18;;;;;;;5.05;2.25;;;;;;;30.78;30.25;99581.61;2077759;83;21099;-72
2021/07/30 11:12:20;;;;;;;4.78;2.58;;;;;;;30.80;30.31;99576.66;2079413;83;21060;-74
2021/07/30 11:15:22;;;;;;;2.80;2.50;;;;;;;30.82;30.46;99574.39;2092911;83;22356;-74
2021/07/30 11:18:26;;;;;;;3.52;2.80;;;;;;;30.97;30.61;99563.61;2081638;82;21069;-75
2021/07/30 11:21:29;;;;;;;3.62;2.65;;;;;;;30.85;30.47;99570.79;2094954;82;21678;-72
2021/07/30 11:24:30;;;;;;;3.45;2.87;;;;;;;30.75;30.39;99564.44;2072884;83;21606;-73
2021/07/30 11:27:32;;;;;;;4.92;2.60;;;;;;;30.67;30.74;99565.77;2095208;82;21037;-73
2021/07/30 11:30:34;;;;;;;4.65;2.72;;;;;;;30.64;30.30;99565.83;2083790;82;21080;-73
2021/07/30 11:33:35;;;;;;;3.02;2.80;;;;;;;30.58;30.79;99561.61;2082555;82;21552;-73
2021/07/30 11:36:37;;;;;;;3.00;2.70;;;;;;;30.71;30.97;99559.89;2088496;82;21044;-72
2021/07/30 11:39:44;;;;;;;6.85;3.20;;;;;;;30.65;30.30;99557.05;2088735;82;21113;-72
2021/07/30 11:42:46;;;;;;;74.42;10.50;;;;;;;30.55;29.08;99549.36;2092343;83;21156;-73
2021/07/30 11:45:48;;;;;;;7.30;3.52;;;;;;;30.45;30.53;99548.24;2108069;82;22913;-73
2021/07/30 11:48:49;;;;;;;4.53;2.85;;;;;;;30.49;30.73;99535.53;2076086;82;21912;-72
2021/07/30 11:51:51;;;;;;;4.33;2.90;;;;;;;30.51;30.39;99535.23;2089410;83;21033;-71
2021/07/30 11:54:53;;;;;;;7.50;3.20;;;;;;;30.43;30.35;99535.98;2088014;83;21114;-71
2021/07/30 11:57:55;;;;;;;32.88;3.85;;;;;;;30.31;30.94;99526.98;2082688;83;21083;-72
2021/07/30 12:01:11;;;;;;;3.02;2.72;;;;;;;30.37;31.03;99523.00;2093835;83;21161;-72
2021/07/30 12:04:15;;;;;;;13.28;4.42;;;;;;;30.47;31.44;99521.94;2101361;82;21037;-72
2021/07/30 12:07:20;;;;;;;4.65;3.08;;;;;;;30.60;31.21;99521.02;2094918;82;21065;-72
2021/07/30 12:10:23;;;;;;;10.00;3.15;;;;;;;30.49;31.06;99514.20;2093408;82;21037;-72
2021/07/30 12:13:26;;;;;;;4.83;3.00;;;;;;;30.55;31.35;99518.42;2087756;82;21663;-72
2021/07/30 12:16:28;;;;;;;3.12;2.83;;;;;;;30.62;31.07;99511.94;2067065;83;21081;-74
2021/07/30 12:19:33;;;;;;;7.12;2.92;;;;;;;30.41;31.03;99476.11;2079576;83;21140;-72
2021/07/30 12:22:44;;;;;;;4.20;2.80;;;;;;;30.53;31.25;99505.63;2097265;82;21097;-72
2021/07/30 12:25:49;;;;;;;5.45;2.70;;;;;;;30.46;31.14;99504.69;2097421;82;21056;-72
2021/07/30 12:28:52;;;;;;;8.93;2.87;;;;;;;30.23;31.24;99487.50;2102704;82;22339;-72
2021/07/30 12:32:13;;;;;;;4.45;2.90;;;;;;;30.22;30.95;99496.84;2098964;82;21558;-73
2021/07/30 12:35:17;;;;;;;4.78;2.80;;;;;;;30.24;31.18;99480.92;2084877;83;21037;-72
2021/07/30 12:38:20;;;;;;;4.67;3.02;;;;;;;30.45;31.41;99489.40;2084598;83;21092;-73
2021/07/30 12:41:29;;;;;;;10.05;3.60;;;;;;;30.34;31.05;99486.12;2100904;82;21101;-73
2021/07/30 12:44:30;;;;;;;3.67;3.08;;;;;;;30.25;31.34;99489.38;2093364;83;21661;-74
2021/07/30 12:47:34;;;;;;;12.28;3.17;;;;;;;30.10;30.92;99485.61;2087381;83;21046;-73
2021/07/30 12:50:39;;;;;;;3.83;3.10;;;;;;;30.10;30.92;99485.61;2092902;83;21057;-73
2021/07/30 12:54:03;;;;;;;3.75;3.00;;;;;;;30.06;31.71;99475.86;2100149;82;21523;-73
2021/07/30 12:57:05;;;;;;;8.68;3.00;;;;;;;30.06;31.71;99475.86;2077819;82;21049;-73
2021/07/30 13:00:09;;;;;;;7.08;3.08;;;;;;;30.22;31.37;99475.52;2075652;83;21633;-73
2021/07/30 13:03:15;;;;;;;11.12;3.08;;;;;;;30.29;31.77;99472.56;2085467;83;21132;-74
2021/07/30 13:06:22;;;;;;;4.97;3.25;;;;;;;30.27;31.30;99470.72;2097234;83;21073;-73
2021/07/30 13:09:24;;;;;;;9.63;3.20;;;;;;;30.28;31.86;99469.59;2108965;82;21065;-72
2021/07/30 13:12:27;;;;;;;7.55;3.62;;;;;;;30.14;31.81;99466.10;2092623;82;21536;-72
2021/07/30 13:15:28;;;;;;;5.92;3.25;;;;;;;29.87;31.61;99429.56;2100139;82;21022;-73
2021/07/30 13:18:30;;;;;;;7.30;3.15;;;;;;;29.87;31.61;99429.56;2097355;83;21530;-73
2021/07/30 13:21:32;;;;;;;7.60;3.35;;;;;;;29.87;31.38;99421.36;2075943;83;21660;-73
2021/07/30 13:24:34;;;;;;;7.55;3.30;;;;;;;30.03;31.62;99442.87;2084899;82;21573;-73
2021/07/30 13:27:36;;;;;;;4.15;3.37;;;;;;;29.87;30.89;99429.56;2092808;82;21070;-74
2021/07/30 13:30:38;;;;;;;4.92;2.90;;;;;;;29.87;30.89;99429.56;2089242;82;21032;-74
2021/07/30 13:33:40;;;;;;;7.30;3.33;;;;;;;29.73;31.43;99434.28;2098070;82;21115;-73
2021/07/30 13:36:42;;;;;;;4.37;3.12;;;;;;;29.64;31.05;99434.23;2098362;82;21036;-73
2021/07/30 13:39:44;;;;;;;3.72;2.95;;;;;;;29.46;31.64;99434.63;2099808;83;21066;-73
2021/07/30 13:42:45;;;;;;;9.40;3.65;;;;;;;29.47;32.04;99430.77;2099959;82;21049;-72
2021/07/30 13:45:51;;;;;;;7.35;3.58;;;;;;;29.52;31.94;99429.85;2104674;82;21027;-74
2021/07/30 13:48:53;;;;;;;9.70;3.27;;;;;;;29.50;32.18;99433.45;2071275;83;21092;-72
2021/07/30 13:51:55;;;;;;;8.83;3.02;;;;;;;29.49;32.12;99417.61;2072513;83;21390;-73
2021/07/30 13:54:57;;;;;;;9.43;3.72;;;;;;;29.61;32.46;99413.52;2055434;83;21112;-74
2021/07/30 13:57:58;;;;;;;4.28;3.77;;;;;;;29.52;32.13;99423.02;2069846;83;21093;-72
2021/07/30 14:01:00;;;;;;;7.33;3.20;;;;;;;29.47;32.15;99423.94;2097083;82;21085;-74
2021/07/30 14:04:02;;;;;;;5.92;3.17;;;;;;;29.47;32.24;99419.03;2068227;83;21107;-72
2021/07/30 14:07:05;;;;;;;9.80;3.70;;;;;;;29.52;32.65;99414.02;2098728;82;22267;-71
2021/07/30 14:10:14;;;;;;;12.30;3.58;;;;;;;29.54;32.28;99411.77;2101617;82;22299;-70
2021/07/30 14:13:15;;;;;;;12.57;3.40;;;;;;;29.45;32.39;99423.98;2095872;82;21100;-71
2021/07/30 14:16:18;;;;;;;5.53;3.70;;;;;;;29.30;32.73;99412.06;2075405;83;21346;-72
2021/07/30 14:19:20;;;;;;;5.33;3.10;;;;;;;29.32;32.11;99414.73;2085833;82;21126;-73